Time;durP1;ratioP1;P1;durP2;ratioP2;P2;SDS_P1;SDS_P2;PMS_P1;PMS_P2;Temp;Humidity;BMP_temperature;BMP_pressure;BME280_temperature;BME280_humidity;BME280_pressure;Samples;Min_cycle;Max_cycle;Signal;HPM_P1;HPM_P2
2022/05/17 00:02:14;;;;;;;2.38;1.40;;;18.30;99.90;;;;;;7392269;19;20598;-80
2022/05/17 00:04:40;;;;;;;5.03;1.55;;;18.50;99.90;;;;;;7386324;19;20155;-76
2022/05/17 00:07:06;;;;;;;1.65;1.40;;;18.70;99.90;;;;;;7386351;19;20548;-80
2022/05/17 00:09:33;;;;;;;3.60;1.55;;;18.80;99.90;;;;;;7386642;19;20198;-76
2022/05/17 00:11:59;;;;;;;3.20;1.60;;;19.00;99.90;;;;;;7387431;19;20146;-75
2022/05/17 00:14:26;;;;;;;2.38;2.17;;;19.00;99.90;;;;;;7386412;19;20130;-75
2022/05/17 00:16:52;;;;;;;4.90;1.73;;;18.80;99.90;;;;;;7385091;19;20610;-80
2022/05/17 00:19:20;;;;;;;2.05;1.67;;;19.00;99.90;;;;;;7387975;19;20151;-79
2022/05/17 00:21:49;;;;;;;3.13;1.90;;;19.00;99.90;;;;;;7385266;19;20164;-79
2022/05/17 00:24:18;;;;;;;3.25;1.98;;;19.00;99.90;;;;;;7393442;19;20175;-76
2022/05/17 00:26:44;;;;;;;2.10;1.60;;;19.00;99.90;;;;;;7391434;19;20130;-79
2022/05/17 00:29:11;;;;;;;2.80;2.20;;;19.10;99.90;;;;;;7386324;19;20634;-76
2022/05/17 00:31:37;;;;;;;4.38;2.08;;;19.00;99.90;;;;;;7388606;19;20141;-79
2022/05/17 00:34:03;;;;;;;6.55;1.77;;;18.90;99.90;;;;;;7387400;19;20144;-76
2022/05/17 00:36:31;;;;;;;3.65;1.70;;;18.80;99.90;;;;;;7390488;19;20134;-80
2022/05/17 00:38:57;;;;;;;2.00;1.33;;;18.60;99.90;;;;;;7386420;19;20131;-81
2022/05/17 00:41:22;;;;;;;4.38;1.75;;;18.60;99.90;;;;;;7390143;19;20167;-76
2022/05/17 00:47:00;;;;;;;4.30;1.73;;;18.60;99.90;;;;;;7391783;19;20142;-77
2022/05/17 00:49:33;;;;;;;2.15;1.52;;;18.30;99.90;;;;;;7386995;19;20154;-80
2022/05/17 00:52:04;;;;;;;7.93;1.85;;;18.40;99.90;;;;;;7387940;19;20142;-75
2022/05/17 00:54:31;;;;;;;1.90;1.60;;;18.40;99.90;;;;;;7388741;19;20127;-80
2022/05/17 00:57:33;;;;;;;2.60;1.60;;;18.50;99.90;;;;;;7387047;19;20184;-75
2022/05/17 01:00:05;;;;;;;3.08;1.73;;;18.50;99.90;;;;;;7385207;19;20225;-81
2022/05/17 01:02:32;;;;;;;2.13;1.65;;;18.50;99.90;;;;;;7385772;19;20147;-79
2022/05/17 01:05:00;;;;;;;3.72;1.60;;;18.50;99.90;;;;;;7386762;19;20141;-81
2022/05/17 01:07:30;;;;;;;4.22;1.60;;;18.40;99.90;;;;;;7385723;19;20146;-80
2022/05/17 01:09:56;;;;;;;3.38;1.70;;;18.40;99.90;;;;;;7386153;19;20481;-78
2022/05/17 01:12:22;;;;;;;2.90;1.55;;;18.30;99.90;;;;;;7385492;19;20150;-75
2022/05/17 01:15:00;;;;;;;2.83;1.58;;;18.40;99.90;;;;;;7385287;19;20143;-75
2022/05/17 01:17:29;;;;;;;2.47;1.40;;;18.50;99.90;;;;;;7386009;19;20139;-77
2022/05/17 01:19:55;;;;;;;2.58;1.60;;;18.50;99.90;;;;;;7387256;19;20210;-80
2022/05/17 01:22:21;;;;;;;2.63;1.60;;;18.50;99.90;;;;;;7385095;19;20139;-76
2022/05/17 01:24:48;;;;;;;2.47;1.70;;;18.40;99.90;;;;;;7388861;19;20154;-80
2022/05/17 01:27:34;;;;;;;3.97;1.75;;;18.30;99.90;;;;;;7392604;19;20143;-80
2022/05/17 01:30:00;;;;;;;1.75;1.55;;;18.30;99.90;;;;;;7389565;19;20138;-75
2022/05/17 01:32:26;;;;;;;2.08;1.60;;;18.20;99.90;;;;;;7390685;19;20525;-76
2022/05/17 01:34:52;;;;;;;4.50;1.73;;;18.20;99.90;;;;;;7395055;19;20146;-77
2022/05/17 01:37:18;;;;;;;5.68;1.83;;;18.20;99.90;;;;;;7396509;19;20134;-75
2022/05/17 01:39:47;;;;;;;3.42;1.90;;;18.10;99.90;;;;;;7392048;19;20131;-82
2022/05/17 01:42:15;;;;;;;4.53;1.77;;;18.30;99.90;;;;;;7392321;19;20130;-80
2022/05/17 01:44:43;;;;;;;4.18;1.70;;;18.30;99.90;;;;;;7394054;19;20141;-76
2022/05/17 01:47:11;;;;;;;5.47;1.85;;;18.30;99.90;;;;;;7394407;19;20134;-76
2022/05/17 01:49:36;;;;;;;2.10;1.60;;;18.30;99.90;;;;;;7397815;19;20141;-75
2022/05/17 01:52:03;;;;;;;3.95;2.00;;;18.30;99.90;;;;;;7395690;19;20480;-75
2022/05/17 01:54:29;;;;;;;2.95;1.80;;;18.30;99.90;;;;;;7391726;19;20150;-80
2022/05/17 01:56:54;;;;;;;5.93;1.83;;;18.00;99.90;;;;;;7392473;19;20135;-81
2022/05/17 01:59:20;;;;;;;1.92;1.50;;;18.00;99.90;;;;;;7391475;19;20165;-76
2022/05/17 02:01:46;;;;;;;6.35;1.90;;;18.10;99.90;;;;;;7393887;19;20143;-80
2022/05/17 02:04:13;;;;;;;3.53;1.95;;;18.10;99.90;;;;;;7392792;19;20150;-81
2022/05/17 02:06:39;;;;;;;5.53;1.80;;;18.10;99.90;;;;;;7391236;19;20202;-80
2022/05/17 02:09:05;;;;;;;3.05;2.00;;;18.00;99.90;;;;;;7393836;19;20479;-82
2022/05/17 02:11:31;;;;;;;2.95;1.73;;;17.80;99.90;;;;;;7393213;19;20150;-75
2022/05/17 02:13:57;;;;;;;4.57;1.85;;;17.60;99.90;;;;;;7398587;19;20146;-80
2022/05/17 02:16:22;;;;;;;5.18;2.13;;;17.90;99.90;;;;;;7391016;19;20146;-80
2022/05/17 02:18:48;;;;;;;3.55;2.13;;;18.20;99.90;;;;;;7390300;19;20142;-81
2022/05/17 02:21:14;;;;;;;2.50;1.73;;;18.20;99.90;;;;;;7392578;19;20133;-75
2022/05/17 02:23:40;;;;;;;3.10;1.92;;;18.20;99.90;;;;;;7389593;19;20641;-80
2022/05/17 02:26:05;;;;;;;3.85;2.20;;;18.20;99.90;;;;;;7391349;19;20282;-78
2022/05/17 02:28:31;;;;;;;3.50;2.33;;;18.30;99.90;;;;;;7395416;19;20450;-80
2022/05/17 02:30:57;;;;;;;2.92;2.20;;;18.30;99.90;;;;;;7393007;19;20227;-75
2022/05/17 02:33:23;;;;;;;6.30;2.50;;;18.20;99.90;;;;;;7400084;19;20445;-83
2022/05/17 02:35:49;;;;;;;3.85;2.00;;;18.20;99.90;;;;;;7399808;19;20598;-77
2022/05/17 02:38:15;;;;;;;2.58;2.10;;;18.20;99.90;;;;;;7391659;19;20163;-76
2022/05/17 02:40:41;;;;;;;5.63;2.63;;;17.90;99.90;;;;;;7389483;19;20142;-81
2022/05/17 02:43:11;;;;;;;2.95;2.03;;;17.60;99.90;;;;;;7392364;19;20155;-75
2022/05/17 02:45:36;;;;;;;2.97;1.90;;;17.50;99.90;;;;;;7390575;19;20638;-76
2022/05/17 02:48:02;;;;;;;3.38;1.83;;;17.40;99.90;;;;;;7390177;19;20118;-82
2022/05/17 02:50:28;;;;;;;4.45;2.05;;;17.30;99.90;;;;;;7390613;19;20146;-74
2022/05/17 02:52:54;;;;;;;3.00;2.00;;;17.40;99.90;;;;;;7394900;19;20160;-80
2022/05/17 02:55:19;;;;;;;4.60;1.58;;;17.40;99.90;;;;;;7398941;19;20146;-75
2022/05/17 02:57:45;;;;;;;4.32;2.13;;;17.50;99.90;;;;;;7390614;19;20138;-75
2022/05/17 03:00:14;;;;;;;2.42;1.83;;;17.50;99.90;;;;;;7389748;19;20149;-80
2022/05/17 03:02:40;;;;;;;2.90;1.90;;;17.20;99.90;;;;;;7390765;19;20157;-80
2022/05/17 03:05:07;;;;;;;2.60;2.10;;;17.20;99.90;;;;;;7391414;19;20244;-75
2022/05/17 03:07:32;;;;;;;3.63;2.08;;;17.20;99.90;;;;;;7389889;19;20138;-75
2022/05/17 03:09:58;;;;;;;3.17;2.08;;;17.40;99.90;;;;;;7391526;19;20123;-80
2022/05/17 03:12:24;;;;;;;2.63;2.00;;;17.50;99.90;;;;;;7389818;19;20135;-75
2022/05/17 03:14:50;;;;;;;6.22;2.40;;;17.60;99.90;;;;;;7391010;19;20146;-74
2022/05/17 03:17:17;;;;;;;3.55;2.33;;;17.70;99.90;;;;;;7397604;19;20134;-80
2022/05/17 03:19:44;;;;;;;4.97;2.17;;;17.40;99.90;;;;;;7393075;19;20138;-74
2022/05/17 03:22:10;;;;;;;4.80;2.40;;;17.10;99.90;;;;;;7389649;19;20599;-80
2022/05/17 03:24:37;;;;;;;3.30;1.98;;;17.00;99.90;;;;;;7389180;19;20150;-81
2022/05/17 03:27:03;;;;;;;4.53;2.42;;;17.10;99.90;;;;;;7389526;19;20122;-81
2022/05/17 03:29:29;;;;;;;2.83;1.70;;;17.30;99.90;;;;;;7391061;19;20194;-80
2022/05/17 03:31:55;;;;;;;2.97;2.10;;;17.50;99.90;;;;;;7393525;19;20665;-81
2022/05/17 03:34:21;;;;;;;2.83;2.25;;;17.60;99.90;;;;;;7391460;19;20130;-78
2022/05/17 03:36:47;;;;;;;2.60;2.10;;;17.50;99.90;;;;;;7391296;19;20155;-76
2022/05/17 03:39:14;;;;;;;3.53;2.10;;;17.30;99.90;;;;;;7394572;19;20131;-77
2022/05/17 03:41:40;;;;;;;2.85;2.03;;;17.30;99.90;;;;;;7389109;19;20164;-79
2022/05/17 03:44:06;;;;;;;3.17;2.40;;;17.40;99.90;;;;;;7388719;19;20130;-77
2022/05/17 03:46:31;;;;;;;5.40;2.00;;;17.40;99.90;;;;;;7388742;19;20163;-74
2022/05/17 03:48:59;;;;;;;4.45;2.35;;;17.30;99.90;;;;;;7388360;19;20123;-81
2022/05/17 03:51:25;;;;;;;4.55;2.28;;;17.30;99.90;;;;;;7390228;19;20130;-75
2022/05/17 03:53:51;;;;;;;5.05;2.70;;;17.40;99.90;;;;;;7388350;19;20147;-79
2022/05/17 03:56:17;;;;;;;4.40;2.40;;;17.50;99.90;;;;;;7387030;19;20134;-81
2022/05/17 03:58:44;;;;;;;8.00;2.60;;;17.60;99.90;;;;;;7394090;19;20475;-80
2022/05/17 04:01:12;;;;;;;5.22;2.60;;;17.40;99.90;;;;;;7389559;19;20135;-74
2022/05/17 04:03:39;;;;;;;3.45;2.42;;;17.50;99.90;;;;;;7388228;19;20146;-80
2022/05/17 04:06:05;;;;;;;3.40;2.38;;;17.40;99.90;;;;;;7388679;19;20217;-74
2022/05/17 04:08:31;;;;;;;4.90;2.30;;;17.50;99.90;;;;;;7389554;19;20161;-80
2022/05/17 04:10:57;;;;;;;3.20;2.28;;;17.50;99.90;;;;;;7388702;19;20134;-80
2022/05/17 04:13:26;;;;;;;6.28;2.72;;;17.60;99.90;;;;;;7388541;19;20218;-75
2022/05/17 04:15:52;;;;;;;3.60;2.20;;;17.60;99.90;;;;;;7388787;19;20214;-74
2022/05/17 04:18:18;;;;;;;4.22;2.60;;;17.50;99.90;;;;;;7390836;19;20139;-76
2022/05/17 04:20:44;;;;;;;4.90;2.67;;;17.50;99.90;;;;;;7387287;19;20145;-74
2022/05/17 04:23:10;;;;;;;3.63;2.30;;;17.60;99.90;;;;;;7387552;19;20466;-75
2022/05/17 04:25:35;;;;;;;4.70;2.50;;;17.20;99.90;;;;;;7389005;19;20605;-81
2022/05/17 04:28:01;;;;;;;4.35;2.78;;;17.30;99.90;;;;;;7387707;19;20190;-82
2022/05/17 04:30:28;;;;;;;8.00;2.35;;;17.40;99.90;;;;;;7389116;19;20582;-81
2022/05/17 04:32:54;;;;;;;3.85;2.70;;;17.40;99.90;;;;;;7388002;19;20459;-81
2022/05/17 04:35:20;;;;;;;3.88;2.63;;;17.50;99.90;;;;;;7391253;19;20150;-74
2022/05/17 04:37:46;;;;;;;5.25;2.95;;;17.30;99.90;;;;;;7387808;19;20486;-74
2022/05/17 04:40:13;;;;;;;5.45;2.75;;;16.80;99.90;;;;;;7387601;19;20138;-74
2022/05/17 04:42:40;;;;;;;3.47;2.58;;;17.10;99.90;;;;;;7396400;19;20127;-74
2022/05/17 04:45:09;;;;;;;3.70;2.70;;;17.10;99.90;;;;;;7388833;19;20148;-81
2022/05/17 04:47:37;;;;;;;4.93;2.70;;;17.40;99.90;;;;;;7386665;19;20159;-81
2022/05/17 04:50:04;;;;;;;4.70;2.78;;;17.50;99.90;;;;;;7387267;19;20157;-74
2022/05/17 04:52:29;;;;;;;3.30;2.42;;;17.60;99.90;;;;;;7387633;19;20135;-75
2022/05/17 04:54:55;;;;;;;4.13;3.10;;;17.60;99.90;;;;;;7387243;19;20160;-80
2022/05/17 04:57:22;;;;;;;4.15;2.78;;;17.70;99.90;;;;;;7387431;19;20513;-81
2022/05/17 04:59:48;;;;;;;5.93;3.08;;;17.70;99.90;;;;;;7386952;19;20131;-74
2022/05/17 05:02:14;;;;;;;3.35;2.60;;;17.70;99.90;;;;;;7387870;19;20599;-74
2022/05/17 05:04:39;;;;;;;4.70;3.20;;;17.70;99.90;;;;;;7388312;19;20142;-83
2022/05/17 05:07:06;;;;;;;6.38;3.28;;;17.70;99.90;;;;;;7398645;19;20143;-76
2022/05/17 05:09:32;;;;;;;7.78;3.22;;;17.70;99.90;;;;;;7394771;19;20163;-75
2022/05/17 05:11:58;;;;;;;4.90;2.95;;;17.70;99.90;;;;;;7394587;19;20154;-80
2022/05/17 05:14:24;;;;;;;5.43;3.33;;;17.60;99.90;;;;;;7394522;19;20139;-81
2022/05/17 05:16:50;;;;;;;7.18;3.83;;;17.60;99.90;;;;;;7393216;19;20598;-75
2022/05/17 05:19:17;;;;;;;7.28;3.58;;;17.60;99.90;;;;;;7395123;19;20131;-75
2022/05/17 05:21:43;;;;;;;4.13;3.00;;;17.70;99.90;;;;;;7393417;19;20131;-81
2022/05/17 05:24:11;;;;;;;6.10;3.40;;;17.70;99.90;;;;;;7392783;19;20677;-73
2022/05/17 05:26:38;;;;;;;5.53;2.83;;;17.70;99.90;;;;;;7395840;19;20146;-79
2022/05/17 05:29:05;;;;;;;5.97;3.20;;;17.80;99.90;;;;;;7405476;19;20146;-72
2022/05/17 05:31:31;;;;;;;6.75;3.17;;;17.80;99.90;;;;;;7397578;19;20640;-75
2022/05/17 05:34:00;;;;;;;6.40;3.20;;;17.80;99.90;;;;;;7393410;19;20131;-81
2022/05/17 05:36:28;;;;;;;5.60;3.60;;;17.80;99.90;;;;;;7393561;19;20142;-80
2022/05/17 05:38:54;;;;;;;6.03;3.58;;;17.90;99.90;;;;;;7395377;19;20546;-83
2022/05/17 05:41:19;;;;;;;5.10;3.00;;;17.80;99.90;;;;;;7393310;19;20158;-75
2022/05/17 05:43:45;;;;;;;4.97;3.40;;;17.90;99.90;;;;;;7394233;19;20892;-82
2022/05/17 05:46:11;;;;;;;4.85;3.55;;;17.80;99.90;;;;;;7394226;19;20131;-80
2022/05/17 05:48:40;;;;;;;5.15;2.70;;;17.90;99.90;;;;;;7401584;19;20139;-80
2022/05/17 05:51:06;;;;;;;6.32;3.00;;;17.90;99.90;;;;;;7416233;19;20146;-80
2022/05/17 05:53:32;;;;;;;6.43;2.97;;;17.70;99.90;;;;;;7394689;19;20729;-76
2022/05/17 05:56:01;;;;;;;6.80;3.33;;;17.80;99.90;;;;;;7394984;19;20150;-76
2022/05/17 05:58:29;;;;;;;6.18;3.40;;;17.60;99.90;;;;;;7395128;19;20137;-75
2022/05/17 06:00:55;;;;;;;6.47;2.90;;;17.90;99.90;;;;;;7396066;19;20151;-74
2022/05/17 06:03:20;;;;;;;6.40;3.47;;;18.20;99.90;;;;;;7396540;19;20519;-80
2022/05/17 06:05:46;;;;;;;4.70;3.40;;;18.10;99.90;;;;;;7392941;19;20142;-73
2022/05/17 06:08:16;;;;;;;5.18;3.33;;;18.30;99.90;;;;;;7395281;19;20586;-80
2022/05/17 06:10:42;;;;;;;6.20;3.10;;;18.30;99.90;;;;;;7399123;19;20537;-74
2022/05/17 06:13:09;;;;;;;5.93;3.35;;;18.40;99.90;;;;;;7392385;19;20143;-74
2022/05/17 06:15:35;;;;;;;5.50;3.10;;;18.50;99.90;;;;;;7391791;19;20157;-78
2022/05/17 06:18:03;;;;;;;5.30;3.38;;;18.70;99.90;;;;;;7393011;19;20134;-75
2022/05/17 06:20:29;;;;;;;5.18;3.20;;;19.50;99.90;;;;;;7391385;19;20142;-74
2022/05/17 06:22:55;;;;;;;5.50;3.15;;;20.40;99.90;;;;;;7394738;19;20646;-76
2022/05/17 06:25:21;;;;;;;7.60;3.72;;;21.20;99.90;;;;;;7395147;19;20692;-77
2022/05/17 06:27:47;;;;;;;7.68;3.40;;;21.70;99.90;;;;;;7395787;19;20158;-82
2022/05/17 06:30:13;;;;;;;7.18;3.72;;;21.90;99.90;;;;;;7401241;19;20150;-73
2022/05/17 06:32:41;;;;;;;5.80;2.97;;;22.00;99.90;;;;;;7396019;19;20167;-75
2022/05/17 06:35:08;;;;;;;6.00;3.15;;;22.00;99.90;;;;;;7393764;19;20146;-77
2022/05/17 06:37:34;;;;;;;9.73;3.05;;;22.10;99.90;;;;;;7390514;19;20685;-72
2022/05/17 06:39:59;;;;;;;5.35;2.55;;;22.30;99.90;;;;;;7389917;19;20138;-72
2022/05/17 06:42:27;;;;;;;6.88;3.15;;;22.30;99.90;;;;;;7391447;19;20206;-76
2022/05/17 06:44:54;;;;;;;4.35;3.05;;;22.50;99.90;;;;;;7391583;19;20142;-77
2022/05/17 06:47:20;;;;;;;5.85;3.40;;;22.40;99.90;;;;;;7390580;19;20134;-70
2022/05/17 06:49:46;;;;;;;4.95;3.03;;;22.50;99.90;;;;;;7392761;19;20207;-75
2022/05/17 06:52:12;;;;;;;5.45;3.45;;;22.50;99.90;;;;;;7392885;19;20123;-76
2022/05/17 06:54:40;;;;;;;4.05;3.15;;;22.50;99.90;;;;;;7392338;19;20134;-72
2022/05/17 06:57:09;;;;;;;5.50;3.13;;;22.50;99.90;;;;;;7393703;19;20230;-71
2022/05/17 06:59:36;;;;;;;6.10;3.58;;;22.60;99.90;;;;;;7393417;19;20609;-72
2022/05/17 07:02:04;;;;;;;7.75;2.97;;;22.70;99.90;;;;;;7392420;19;20149;-72
2022/05/17 07:04:32;;;;;;;6.32;3.13;;;22.60;99.90;;;;;;7389929;19;20162;-72
2022/05/17 07:06:59;;;;;;;5.88;3.35;;;22.70;99.90;;;;;;7389059;19;20135;-75
2022/05/17 07:09:26;;;;;;;6.40;3.05;;;23.00;99.90;;;;;;7390290;19;20259;-76
2022/05/17 07:14:37;;;;;;;8.60;3.55;;;22.70;99.90;;;;;;7393351;19;20134;-72
2022/05/17 07:17:22;;;;;;;4.82;3.20;;;22.60;99.90;;;;;;7389295;19;20142;-72
2022/05/17 07:19:48;;;;;;;6.15;3.28;;;22.70;99.90;;;;;;7389492;19;20644;-72
2022/05/17 07:22:14;;;;;;;6.80;3.45;;;23.00;99.90;;;;;;7389508;19;20135;-75
2022/05/17 07:24:45;;;;;;;8.25;3.00;;;23.20;99.90;;;;;;7389893;19;20153;-73
2022/05/17 07:27:12;;;;;;;8.13;3.45;;;23.30;99.90;;;;;;7389146;19;20472;-76
2022/05/17 07:29:38;;;;;;;5.18;2.80;;;23.50;99.90;;;;;;7389746;19;20234;-76
2022/05/17 07:32:05;;;;;;;8.93;3.35;;;23.80;99.90;;;;;;7390510;19;20490;-77
2022/05/17 07:34:33;;;;;;;6.22;3.08;;;24.00;99.90;;;;;;7391836;19;20135;-74
2022/05/17 07:36:59;;;;;;;4.75;3.13;;;23.90;99.90;;;;;;7393211;19;20152;-72
2022/05/17 07:39:25;;;;;;;6.38;2.90;;;24.00;99.90;;;;;;7389734;19;20146;-73
2022/05/17 07:41:52;;;;;;;5.13;2.85;;;24.10;99.90;;;;;;7389294;19;20162;-75
2022/05/17 07:44:18;;;;;;;6.68;3.22;;;24.10;99.90;;;;;;7389337;19;20638;-73
2022/05/17 07:46:44;;;;;;;3.72;3.00;;;24.20;99.90;;;;;;7389751;19;20493;-72
2022/05/17 07:49:10;;;;;;;4.78;3.15;;;24.40;99.90;;;;;;7389902;19;20673;-72
2022/05/17 07:51:36;;;;;;;5.18;2.40;;;24.70;99.90;;;;;;7390099;19;20177;-76
2022/05/17 07:54:02;;;;;;;4.50;2.40;;;24.70;99.90;;;;;;7388853;19;20507;-76
2022/05/17 07:56:28;;;;;;;9.25;2.70;;;24.90;99.90;;;;;;7390707;19;20126;-76
2022/05/17 07:58:54;;;;;;;4.82;2.42;;;24.70;99.90;;;;;;7392990;19;20146;-72
2022/05/17 08:01:19;;;;;;;4.55;2.38;;;24.50;99.90;;;;;;7387091;19;20606;-76
2022/05/17 08:03:45;;;;;;;4.90;2.17;;;24.40;99.90;;;;;;7388434;19;20140;-72
2022/05/17 08:06:11;;;;;;;7.82;2.80;;;24.70;99.90;;;;;;7388232;19;20169;-76
2022/05/17 08:08:37;;;;;;;7.28;2.70;;;24.60;99.90;;;;;;7387878;19;20131;-76
2022/05/17 08:11:02;;;;;;;2.92;2.47;;;24.70;99.90;;;;;;7388807;19;20160;-73
2022/05/17 08:13:28;;;;;;;7.15;2.60;;;25.10;99.90;;;;;;7390500;19;20159;-72
2022/05/17 08:15:54;;;;;;;3.05;2.33;;;25.50;99.90;;;;;;7388398;19;20190;-75
2022/05/17 08:18:20;;;;;;;4.30;2.22;;;25.60;99.90;;;;;;7390453;19;20130;-77
2022/05/17 08:20:47;;;;;;;2.50;1.98;;;25.60;99.90;;;;;;7392556;19;20135;-75
2022/05/17 08:23:13;;;;;;;3.30;2.15;;;25.70;99.90;;;;;;7387668;19;20154;-77
2022/05/17 08:28:24;;;;;;;6.03;3.70;;;25.50;99.90;;;;;;7392920;19;20453;-75
2022/05/17 08:30:51;;;;;;;4.57;3.60;;;25.30;99.90;;;;;;7388032;19;20135;-75
2022/05/17 08:33:19;;;;;;;3.25;2.30;;;25.70;99.90;;;;;;7387345;19;20206;-76
2022/05/17 08:35:53;;;;;;;5.15;1.98;;;25.80;99.90;;;;;;7391624;19;20150;-76
2022/05/17 08:38:30;;;;;;;3.08;1.70;;;25.60;99.90;;;;;;7389674;19;20956;-77
2022/05/17 08:41:01;;;;;;;3.80;3.25;;;25.40;99.90;;;;;;7388100;19;20134;-75
2022/05/17 08:43:49;;;;;;;4.90;2.28;;;25.20;99.90;;;;;;7404838;19;20135;-72
2022/05/17 08:46:23;;;;;;;2.47;2.05;;;25.20;99.90;;;;;;7399124;19;20222;-73
2022/05/17 08:49:10;;;;;;;3.08;2.10;;;25.20;99.90;;;;;;7395648;19;20218;-73
2022/05/17 08:51:50;;;;;;;4.47;2.63;;;25.20;99.90;;;;;;7397459;19;20137;-71
2022/05/17 08:55:01;;;;;;;5.45;2.08;;;25.10;99.90;;;;;;7396909;19;20150;-76
2022/05/17 08:57:32;;;;;;;4.28;1.90;;;24.70;99.90;;;;;;7395120;19;20597;-73
2022/05/17 09:00:13;;;;;;;3.30;2.08;;;24.50;99.90;;;;;;7393949;19;20146;-73
2022/05/17 09:02:49;;;;;;;3.17;2.20;;;24.20;99.90;;;;;;7393795;19;20119;-73
2022/05/17 09:05:33;;;;;;;4.78;2.28;;;24.00;99.90;;;;;;7396455;19;20130;-75
2022/05/17 09:08:24;;;;;;;6.13;2.50;;;24.00;99.90;;;;;;7400985;19;20135;-77
2022/05/17 09:11:16;;;;;;;3.03;1.92;;;23.90;99.90;;;;;;7396067;19;20233;-72
2022/05/17 09:13:45;;;;;;;3.08;1.90;;;23.90;99.90;;;;;;7398490;19;20139;-72
2022/05/17 09:16:13;;;;;;;3.50;2.20;;;23.90;99.90;;;;;;7393782;19;20146;-73
2022/05/17 09:18:40;;;;;;;4.30;1.80;;;23.90;99.90;;;;;;7395328;19;20135;-76
2022/05/17 09:21:31;;;;;;;7.03;2.25;;;23.90;99.90;;;;;;7391832;19;20137;-76
2022/05/17 09:24:05;;;;;;;5.57;2.35;;;24.10;99.90;;;;;;7393415;19;20209;-73
2022/05/17 09:26:32;;;;;;;2.38;1.70;;;24.10;99.90;;;;;;7404357;19;20145;-75
2022/05/17 09:29:24;;;;;;;3.28;2.38;;;24.00;99.90;;;;;;7402023;19;20134;-74
2022/05/17 09:32:02;;;;;;;3.63;2.13;;;24.00;99.90;;;;;;7396561;19;20150;-76
2022/05/17 09:34:33;;;;;;;3.83;2.10;;;24.00;99.90;;;;;;7397228;19;20525;-75
2022/05/17 09:37:13;;;;;;;5.50;2.30;;;23.90;99.90;;;;;;7393957;19;20481;-74
2022/05/17 09:39:43;;;;;;;3.85;2.10;;;24.00;99.90;;;;;;7392104;19;20141;-75
2022/05/17 09:42:24;;;;;;;4.13;2.40;;;24.10;99.90;;;;;;7392059;19;20167;-74
2022/05/17 09:44:52;;;;;;;4.10;2.47;;;24.20;99.90;;;;;;7394646;19;20139;-73
2022/05/17 09:47:43;;;;;;;3.28;2.20;;;24.10;99.90;;;;;;7394747;19;20135;-73
2022/05/17 09:53:17;;;;;;;3.17;2.55;;;24.00;99.90;;;;;;7395839;19;20157;-75
2022/05/17 09:55:49;;;;;;;4.07;2.05;;;24.00;99.90;;;;;;7394797;19;20257;-73
2022/05/17 09:58:33;;;;;;;4.63;2.03;;;24.00;99.90;;;;;;7393326;19;20151;-75
2022/05/17 10:01:06;;;;;;;3.05;2.33;;;24.00;99.90;;;;;;7393132;19;20130;-74
2022/05/17 10:03:34;;;;;;;3.00;2.15;;;24.00;99.90;;;;;;7392578;19;20613;-72
2022/05/17 10:06:07;;;;;;;3.53;2.00;;;24.20;99.90;;;;;;7393337;19;20511;-75
2022/05/17 10:09:02;;;;;;;5.32;2.42;;;24.40;99.90;;;;;;7393182;19;20181;-72
2022/05/17 10:11:53;;;;;;;3.25;2.03;;;24.40;99.90;;;;;;7391977;19;20143;-73
2022/05/17 10:14:18;;;;;;;3.90;2.10;;;24.20;99.90;;;;;;7391604;19;20589;-72
2022/05/17 10:17:01;;;;;;;4.03;2.30;;;24.20;99.90;;;;;;7390985;19;20133;-75
2022/05/17 10:19:40;;;;;;;3.95;2.28;;;24.20;99.90;;;;;;7391057;19;20617;-75
2022/05/17 10:22:25;;;;;;;3.72;2.10;;;24.10;99.90;;;;;;7392944;19;20138;-72
2022/05/17 10:25:09;;;;;;;3.25;2.53;;;24.20;99.90;;;;;;7390789;19;20126;-75
2022/05/17 10:27:38;;;;;;;3.65;1.75;;;24.20;99.90;;;;;;7391462;19;20147;-76
2022/05/17 10:30:14;;;;;;;4.70;2.08;;;24.10;99.90;;;;;;7393590;19;20145;-75
2022/05/17 10:32:43;;;;;;;2.88;1.95;;;24.10;99.90;;;;;;7391776;19;20188;-73
2022/05/17 10:35:27;;;;;;;7.10;2.28;;;24.20;99.90;;;;;;7398663;19;20205;-73
2022/05/17 10:38:06;;;;;;;3.30;1.92;;;24.30;99.90;;;;;;7391103;19;20150;-75
2022/05/17 10:40:35;;;;;;;2.20;1.90;;;24.30;99.90;;;;;;7389733;19;20153;-76
2022/05/17 10:43:03;;;;;;;4.50;2.33;;;24.30;99.90;;;;;;7390937;19;20146;-72
2022/05/17 10:45:33;;;;;;;4.00;2.05;;;24.50;99.90;;;;;;7390481;19;20142;-75
2022/05/17 10:48:17;;;;;;;3.97;2.00;;;24.70;99.60;;;;;;7389542;19;20131;-75
2022/05/17 10:51:06;;;;;;;3.13;1.92;;;24.60;99.30;;;;;;7392104;19;20155;-74
2022/05/17 10:53:44;;;;;;;3.95;2.28;;;24.60;99.00;;;;;;7392880;19;20207;-72
2022/05/17 10:56:32;;;;;;;3.78;2.85;;;24.50;99.30;;;;;;7390326;19;20148;-75
2022/05/17 10:59:10;;;;;;;3.33;2.00;;;24.50;99.20;;;;;;7390245;19;20243;-72
2022/05/17 11:01:45;;;;;;;3.83;1.95;;;24.40;99.30;;;;;;7391824;19;20138;-72
2022/05/17 11:04:14;;;;;;;3.70;1.70;;;24.50;98.90;;;;;;7390944;19;20130;-75
2022/05/17 11:06:59;;;;;;;2.72;1.98;;;24.60;99.00;;;;;;7388670;19;20146;-74
2022/05/17 11:09:59;;;;;;;2.70;1.80;;;24.80;98.70;;;;;;7390442;19;20486;-76
2022/05/17 11:12:32;;;;;;;2.90;1.90;;;24.90;98.90;;;;;;7390859;19;20162;-71
2022/05/17 11:15:13;;;;;;;2.83;1.90;;;25.30;98.50;;;;;;7392677;19;20490;-74
2022/05/17 11:17:58;;;;;;;4.90;1.75;;;25.50;98.00;;;;;;7389441;19;20141;-72
2022/05/17 11:20:54;;;;;;;4.13;1.88;;;25.40;97.60;;;;;;7392716;19;20163;-75
2022/05/17 11:23:39;;;;;;;4.35;1.85;;;25.20;97.90;;;;;;7389513;19;20153;-76
2022/05/17 11:26:36;;;;;;;2.92;1.73;;;25.00;97.30;;;;;;7391400;19;20139;-76
2022/05/17 11:29:40;;;;;;;2.53;1.70;;;24.90;97.30;;;;;;7389962;19;20153;-75
2022/05/17 11:32:31;;;;;;;3.47;1.75;;;24.90;97.50;;;;;;7392958;19;20174;-76
2022/05/17 11:34:59;;;;;;;4.93;1.80;;;24.90;97.70;;;;;;7394468;19;20138;-72
2022/05/17 11:37:36;;;;;;;3.28;1.70;;;24.90;97.20;;;;;;7388393;19;20151;-74
2022/05/17 11:40:11;;;;;;;4.28;1.88;;;24.90;97.10;;;;;;7389172;19;20130;-75
2022/05/17 11:45:51;;;;;;;3.40;1.60;;;25.00;96.60;;;;;;7389073;19;20146;-72
2022/05/17 11:48:45;;;;;;;3.65;1.77;;;24.90;96.90;;;;;;7389592;19;20152;-72
2022/05/17 11:51:10;;;;;;;1.55;1.40;;;25.00;96.90;;;;;;7389096;19;20173;-75
2022/05/17 11:53:46;;;;;;;1.20;1.00;;;25.00;95.90;;;;;;7390008;19;20606;-78
2022/05/17 11:56:12;;;;;;;5.28;2.95;;;25.00;95.10;;;;;;7389808;19;20138;-72
2022/05/17 11:58:40;;;;;;;2.33;1.38;;;25.20;95.30;;;;;;7388832;19;20142;-74
2022/05/17 12:01:31;;;;;;;2.80;1.77;;;25.20;96.00;;;;;;7388335;19;20596;-75
2022/05/17 12:04:07;;;;;;;3.75;1.50;;;25.20;96.10;;;;;;7390315;19;20190;-72
2022/05/17 12:06:48;;;;;;;7.53;3.90;;;25.20;95.80;;;;;;7388496;19;20134;-75
2022/05/17 12:09:23;;;;;;;2.10;1.20;;;25.10;95.50;;;;;;7388438;19;20145;-72
2022/05/17 12:12:10;;;;;;;3.10;1.30;;;25.30;94.50;;;;;;7388981;19;20142;-75
2022/05/17 12:14:50;;;;;;;3.97;1.20;;;25.20;94.70;;;;;;7390046;19;20137;-72
2022/05/17 12:17:25;;;;;;;3.55;1.58;;;25.20;95.30;;;;;;7388502;19;20142;-73
2022/05/17 12:20:16;;;;;;;1.23;1.10;;;25.30;95.50;;;;;;7387664;19;20142;-74
2022/05/17 12:22:52;;;;;;;3.78;1.50;;;25.20;95.60;;;;;;7388713;19;20169;-75
2022/05/17 12:25:34;;;;;;;7.03;2.05;;;25.30;95.70;;;;;;7390784;19;20126;-72
2022/05/17 12:28:01;;;;;;;3.92;1.52;;;25.30;95.40;;;;;;7390110;19;20134;-72
2022/05/17 12:33:33;;;;;;;4.75;1.38;;;25.30;95.20;;;;;;7387272;19;20146;-72
2022/05/17 12:36:29;;;;;;;3.38;1.48;;;25.50;94.50;;;;;;7390814;19;20139;-74
2022/05/17 12:44:56;;;;;;;2.53;1.27;;;25.50;93.60;;;;;;7387540;19;20146;-73
2022/05/17 12:47:36;;;;;;;2.53;0.98;;;25.50;93.30;;;;;;7389750;19;20134;-74
2022/05/17 12:50:04;;;;;;;1.35;1.10;;;25.50;93.10;;;;;;7389006;19;20138;-75
2022/05/17 12:52:36;;;;;;;3.28;1.55;;;25.70;92.30;;;;;;7387257;19;20163;-73
2022/05/17 12:55:11;;;;;;;2.60;1.25;;;25.80;91.50;;;;;;7387571;19;20668;-75
2022/05/17 12:57:39;;;;;;;1.88;1.38;;;25.80;91.20;;;;;;7390027;19;20138;-72
2022/05/17 13:00:10;;;;;;;2.58;1.02;;;25.70;92.00;;;;;;7385256;19;20147;-73
2022/05/17 13:02:44;;;;;;;2.00;1.42;;;25.90;92.20;;;;;;7387045;19;20142;-74
2022/05/17 13:05:43;;;;;;;2.10;1.20;;;25.90;92.30;;;;;;7386757;19;20135;-74
2022/05/17 13:08:14;;;;;;;3.05;0.98;;;25.80;92.20;;;;;;7388937;19;20256;-74
2022/05/17 13:10:43;;;;;;;2.15;0.93;;;25.70;92.10;;;;;;7387161;19;20148;-72
2022/05/17 13:13:14;;;;;;;3.40;1.20;;;25.90;91.60;;;;;;7386689;19;20152;-74
2022/05/17 13:15:43;;;;;;;1.25;1.00;;;25.90;91.00;;;;;;7386974;19;20151;-72
2022/05/17 13:18:10;;;;;;;0.88;0.75;;;25.90;91.10;;;;;;7387456;19;20186;-72
2022/05/17 13:20:37;;;;;;;1.45;0.95;;;25.60;91.50;;;;;;7384553;19;20135;-73
2022/05/17 13:23:06;;;;;;;3.38;1.80;;;25.70;91.60;;;;;;7386901;19;20498;-74
2022/05/17 13:25:42;;;;;;;2.10;0.70;;;25.80;91.90;;;;;;7386206;19;20146;-73
2022/05/17 13:28:09;;;;;;;2.13;1.10;;;25.50;91.40;;;;;;7389286;19;20133;-74
2022/05/17 13:30:42;;;;;;;2.17;1.05;;;25.50;92.00;;;;;;7395977;19;20127;-74